createdAt,value
2019-02-18T00:00:38.768Z,0.81
2019-02-18T00:03:07.987Z,0.75
2019-02-18T00:05:36.977Z,0.74
2019-02-18T00:08:05.500Z,0.63
2019-02-18T00:10:33.931Z,0.57
2019-02-18T00:13:02.389Z,0.51
2019-02-18T00:15:30.811Z,0.39
2019-02-18T00:17:59.333Z,0.38
2019-02-18T00:20:27.823Z,0.41
2019-02-18T00:22:56.274Z,0.41
2019-02-18T00:25:24.701Z,0.44
2019-02-18T00:27:53.153Z,0.39
2019-02-18T00:30:21.577Z,0.29
2019-02-18T00:32:50.037Z,0.32
2019-02-18T00:35:18.475Z,0.40
2019-02-18T00:37:47.020Z,0.41
2019-02-18T00:40:15.445Z,0.37
2019-02-18T00:42:43.902Z,0.22
2019-02-18T00:45:13.201Z,0.20
2019-02-18T00:47:41.682Z,0.22
2019-02-18T00:50:10.853Z,0.32
2019-02-18T00:52:39.286Z,0.34
2019-02-18T00:55:08.850Z,0.36
2019-02-18T00:57:37.301Z,0.41
2019-02-18T01:00:12.052Z,0.40
2019-02-18T01:02:40.496Z,0.38
2019-02-18T01:05:08.993Z,0.34
2019-02-18T01:07:37.406Z,0.33
2019-02-18T01:10:08.605Z,0.26
2019-02-18T01:12:37.019Z,0.23
2019-02-18T01:15:08.317Z,0.11
2019-02-18T01:17:36.743Z,0.03
2019-02-18T01:20:07.942Z,-0.08
2019-02-18T01:22:36.368Z,-0.14
2019-02-18T01:25:06.524Z,-0.14
2019-02-18T01:27:34.964Z,-0.15
2019-02-18T01:30:03.789Z,-0.10
2019-02-18T01:32:32.222Z,-0.08
2019-02-18T01:35:00.679Z,-0.11
2019-02-18T01:37:29.117Z,-0.17
2019-02-18T01:39:57.579Z,-0.20
2019-02-18T01:42:26.072Z,-0.25
2019-02-18T01:44:54.521Z,-0.29
2019-02-18T01:47:22.953Z,-0.37
2019-02-18T01:49:51.413Z,-0.49
2019-02-18T01:52:19.839Z,-0.52
2019-02-18T01:54:48.362Z,-0.47
2019-02-18T01:57:16.788Z,-0.39
2019-02-18T01:59:45.259Z,-0.35
2019-02-18T02:02:13.769Z,-0.38
2019-02-18T02:04:42.232Z,-0.42
2019-02-18T02:07:10.660Z,-0.48
2019-02-18T02:09:39.187Z,-0.55
2019-02-18T02:12:07.609Z,-0.64
2019-02-18T02:14:47.796Z,-0.61
2019-02-18T02:17:16.226Z,-0.58
2019-02-18T02:19:44.678Z,-0.56
2019-02-18T02:22:13.110Z,-0.52
2019-02-18T02:24:41.563Z,-0.51
2019-02-18T02:27:10.002Z,-0.56
2019-02-18T02:29:38.460Z,-0.57
2019-02-18T02:32:06.888Z,-0.58
2019-02-18T02:34:35.345Z,-0.54
2019-02-18T02:37:03.777Z,-0.58
2019-02-18T02:39:32.230Z,-0.61
2019-02-18T02:42:00.661Z,-0.63
2019-02-18T02:44:29.111Z,-0.66
2019-02-18T02:46:57.543Z,-0.66
2019-02-18T02:49:25.979Z,-0.70
2019-02-18T02:51:54.430Z,-0.74
2019-02-18T02:54:22.864Z,-0.71
2019-02-18T02:56:51.312Z,-0.65
2019-02-18T02:59:19.738Z,-0.64
2019-02-18T03:01:48.195Z,-0.71
2019-02-18T03:04:16.640Z,-0.74
2019-02-18T03:06:45.068Z,-0.68
2019-02-18T03:09:13.502Z,-0.68
2019-02-18T03:11:41.963Z,-0.69
2019-02-18T03:14:10.395Z,-0.76
2019-02-18T03:16:38.856Z,-0.74
2019-02-18T03:19:07.289Z,-0.71
2019-02-18T03:21:35.751Z,-0.71
2019-02-18T03:24:04.178Z,-0.71
2019-02-18T03:26:32.638Z,-0.72
2019-02-18T03:29:37.644Z,-0.84
2019-02-18T03:32:06.107Z,-0.88
2019-02-18T03:34:36.871Z,-0.93
2019-02-18T03:37:05.329Z,-0.94
2019-02-18T03:39:33.759Z,-0.93
2019-02-18T03:42:02.222Z,-0.94
2019-02-18T03:44:30.651Z,-0.93
2019-02-18T03:46:59.100Z,-0.93
2019-02-18T03:49:27.600Z,-0.92
2019-02-18T03:51:56.056Z,-0.95
2019-02-18T03:54:24.482Z,-1.02
2019-02-18T03:56:52.930Z,-1.00
2019-02-18T03:59:21.355Z,-0.97
2019-02-18T04:01:49.810Z,-0.94
2019-02-18T04:04:18.304Z,-0.92
2019-02-18T04:06:46.755Z,-0.88
2019-02-18T04:09:15.184Z,-0.82
2019-02-18T04:11:43.646Z,-0.80
2019-02-18T04:14:12.072Z,-0.90
2019-02-18T04:16:40.606Z,-0.92
2019-02-18T04:19:09.035Z,-0.94
2019-02-18T04:21:37.484Z,-1.01
2019-02-18T04:24:05.909Z,-1.09
2019-02-18T04:26:34.347Z,-1.14
2019-02-18T04:29:02.789Z,-1.16
2019-02-18T04:31:31.226Z,-1.22
2019-02-18T04:33:59.688Z,-1.23
2019-02-18T04:36:28.120Z,-1.24
2019-02-18T04:38:56.566Z,-1.27
2019-02-18T04:41:24.998Z,-1.39
2019-02-18T04:43:53.451Z,-1.43
2019-02-18T04:46:21.868Z,-1.43
2019-02-18T04:48:50.323Z,-1.47
2019-02-18T04:51:18.752Z,-1.46
2019-02-18T04:53:47.202Z,-1.48
2019-02-18T04:56:15.641Z,-1.51
2019-02-18T04:58:44.102Z,-1.41
2019-02-18T05:01:12.534Z,-1.32
2019-02-18T05:03:40.993Z,-1.31
2019-02-18T05:06:09.432Z,-1.31
2019-02-18T05:08:37.887Z,-1.39
2019-02-18T05:11:06.319Z,-1.40
2019-02-18T05:13:34.779Z,-1.41
2019-02-18T05:16:03.207Z,-1.44
2019-02-18T05:18:31.662Z,-1.44
2019-02-18T05:21:00.088Z,-1.44
2019-02-18T05:23:28.543Z,-1.42
2019-02-18T05:25:56.973Z,-1.43
2019-02-18T05:28:25.436Z,-1.44
2019-02-18T05:30:53.857Z,-1.43
2019-02-18T05:33:22.323Z,-1.46
2019-02-18T05:35:50.750Z,-1.47
2019-02-18T05:38:19.179Z,-1.51
2019-02-18T05:40:47.624Z,-1.55
2019-02-18T05:43:16.064Z,-1.52
2019-02-18T05:45:44.520Z,-1.58
2019-02-18T05:48:12.957Z,-1.57
2019-02-18T05:50:41.419Z,-1.61
2019-02-18T05:53:09.929Z,-1.70
2019-02-18T05:55:38.377Z,-1.72
2019-02-18T05:58:06.810Z,-1.77
2019-02-18T06:00:35.334Z,-1.78
2019-02-18T06:03:03.776Z,-1.85
2019-02-18T06:05:32.223Z,-1.88
2019-02-18T06:08:00.663Z,-2.13
2019-02-18T06:10:29.125Z,-2.38
2019-02-18T06:12:57.549Z,-2.51
2019-02-18T06:15:26.010Z,-2.62
2019-02-18T06:17:54.432Z,-2.67
2019-02-18T06:20:22.891Z,-2.72
2019-02-18T06:22:51.316Z,-2.72
2019-02-18T06:25:19.764Z,-2.73
2019-02-18T06:27:48.185Z,-2.76
2019-02-18T06:30:16.644Z,-2.79
2019-02-18T06:32:45.082Z,-2.82
2019-02-18T06:35:13.629Z,-2.81
2019-02-18T06:37:42.029Z,-2.78
2019-02-18T06:40:10.561Z,-2.71
2019-02-18T06:42:38.993Z,-2.69
2019-02-18T06:45:12.023Z,-2.67
2019-02-18T06:47:40.528Z,-2.64
2019-02-18T06:50:09.421Z,-2.63
2019-02-18T06:52:37.877Z,-2.56
2019-02-18T06:55:06.308Z,-2.47
2019-02-18T06:57:36.409Z,-2.37
2019-02-18T07:00:08.954Z,-2.30
2019-02-18T07:02:39.050Z,-2.21
2019-02-18T07:05:14.839Z,-2.14
2019-02-18T07:07:47.604Z,-2.06
2019-02-18T07:10:17.671Z,-2.12
2019-02-18T07:12:47.202Z,-2.18
2019-02-18T07:15:15.627Z,-2.13
2019-02-18T07:17:44.115Z,-2.10
2019-02-18T07:20:12.508Z,-2.06
2019-02-18T07:22:40.967Z,-1.95
2019-02-18T07:25:09.831Z,-1.81
2019-02-18T07:27:38.283Z,-1.66
2019-02-18T07:30:12.439Z,-1.50
2019-02-18T07:32:40.889Z,-1.34
2019-02-18T07:35:09.318Z,-1.17
2019-02-18T07:37:37.769Z,-1.01
2019-02-18T07:40:08.349Z,-0.83
2019-02-18T07:42:36.808Z,-0.65
2019-02-18T07:45:07.693Z,-0.52
2019-02-18T07:47:36.147Z,-0.42
2019-02-18T07:50:06.409Z,-0.29
2019-02-18T07:52:34.861Z,-0.18
2019-02-18T07:55:03.291Z,-0.08
2019-02-18T07:57:31.752Z,0.03
2019-02-18T08:00:00.302Z,0.16
2019-02-18T08:02:28.719Z,0.23
2019-02-18T08:04:57.143Z,0.29
2019-02-18T08:07:25.589Z,0.43
2019-02-18T08:09:54.006Z,0.54
2019-02-18T08:12:22.527Z,0.64
2019-02-18T08:14:50.949Z,0.71
2019-02-18T08:17:19.402Z,0.84
2019-02-18T08:19:47.827Z,1.03
2019-02-18T08:22:16.284Z,1.24
2019-02-18T08:24:44.705Z,1.43
2019-02-18T08:27:13.230Z,1.58
2019-02-18T08:29:41.656Z,1.73
2019-02-18T08:32:10.879Z,1.83
2019-02-18T08:34:39.404Z,1.96
2019-02-18T08:37:07.836Z,2.10
2019-02-18T08:39:36.316Z,2.29
2019-02-18T08:42:04.718Z,2.47
2019-02-18T08:44:33.178Z,2.60
2019-02-18T08:47:01.608Z,2.79
2019-02-18T08:49:30.058Z,2.96
2019-02-18T08:51:58.485Z,3.11
2019-02-18T08:54:26.933Z,3.28
2019-02-18T08:56:55.355Z,3.42
2019-02-18T08:59:23.806Z,3.54
2019-02-18T09:01:52.224Z,3.70
2019-02-18T09:04:20.707Z,3.82
2019-02-18T09:06:49.110Z,3.91
2019-02-18T09:09:17.567Z,4.14
2019-02-18T09:11:45.989Z,4.14
2019-02-18T09:14:14.449Z,4.38
2019-02-18T09:16:42.875Z,4.38
2019-02-18T09:19:11.315Z,4.66
2019-02-18T09:21:39.805Z,4.83
2019-02-18T09:24:12.570Z,5.05
2019-02-18T09:26:40.995Z,5.05
2019-02-18T09:29:09.454Z,5.43
2019-02-18T09:31:37.877Z,5.61
2019-02-18T09:34:06.331Z,5.80
2019-02-18T09:36:34.760Z,5.93
2019-02-18T09:39:04.789Z,5.93
2019-02-18T09:41:33.213Z,6.03
2019-02-18T09:44:01.737Z,6.21
2019-02-18T09:46:30.168Z,6.35
2019-02-18T09:48:58.590Z,6.44
2019-02-18T09:51:27.041Z,6.49
2019-02-18T09:53:55.475Z,6.58
2019-02-18T09:56:23.931Z,6.67
2019-02-18T09:58:52.362Z,6.79
2019-02-18T10:01:20.870Z,6.89
2019-02-18T10:03:49.298Z,6.96
2019-02-18T10:06:17.764Z,7.03
2019-02-18T10:08:46.186Z,7.12
2019-02-18T10:11:14.635Z,7.22
2019-02-18T10:13:43.062Z,7.33
2019-02-18T10:16:11.512Z,7.47
2019-02-18T10:18:39.929Z,7.64
2019-02-18T10:21:08.458Z,7.79
2019-02-18T10:23:36.879Z,7.91
2019-02-18T10:26:05.404Z,7.98
2019-02-18T10:28:33.816Z,8.10
2019-02-18T10:31:02.275Z,8.26
2019-02-18T10:33:30.709Z,8.41
2019-02-18T10:35:59.177Z,8.54
2019-02-18T10:38:27.599Z,8.64
2019-02-18T10:41:06.158Z,8.70
2019-02-18T10:43:32.347Z,8.82
2019-02-18T10:45:56.389Z,8.90
2019-02-18T10:48:25.090Z,9.02
2019-02-18T10:50:53.542Z,9.05
2019-02-18T10:53:21.971Z,9.11
2019-02-18T10:55:50.427Z,9.22
2019-02-18T10:58:18.848Z,9.32
2019-02-18T11:00:47.304Z,9.44
2019-02-18T11:03:15.730Z,9.56
2019-02-18T11:05:44.177Z,9.67
2019-02-18T11:08:12.604Z,9.71
2019-02-18T11:10:41.066Z,9.80
2019-02-18T11:13:09.477Z,9.89
2019-02-18T11:15:37.898Z,9.95
2019-02-18T11:18:06.434Z,10.03
2019-02-18T11:20:34.857Z,10.14
2019-02-18T11:23:03.324Z,10.27
2019-02-18T11:25:31.746Z,10.36
2019-02-18T11:28:00.574Z,10.50
2019-02-18T11:30:29.006Z,10.58
2019-02-18T11:32:57.464Z,10.68
2019-02-18T11:35:25.886Z,10.79
2019-02-18T11:37:54.329Z,10.90
2019-02-18T11:40:22.747Z,11.00
2019-02-18T11:42:51.576Z,11.12
2019-02-18T11:45:20.073Z,11.21
2019-02-18T11:47:48.528Z,11.31
2019-02-18T11:50:17.099Z,11.32
2019-02-18T11:52:45.611Z,11.42
2019-02-18T11:55:14.474Z,11.65
2019-02-18T11:57:43.365Z,11.77
2019-02-18T12:00:15.845Z,11.88
2019-02-18T12:02:44.352Z,11.93
2019-02-18T12:05:13.011Z,11.94
2019-02-18T12:07:41.466Z,11.97
2019-02-18T12:10:13.703Z,11.98
2019-02-18T12:12:42.428Z,12.02
2019-02-18T12:15:13.007Z,12.11
2019-02-18T12:17:41.446Z,12.19
2019-02-18T12:20:14.105Z,12.28
2019-02-18T12:22:42.559Z,12.39
2019-02-18T12:25:12.235Z,12.54
2019-02-18T12:27:41.129Z,12.64
2019-02-18T12:30:14.982Z,12.71
2019-02-18T12:32:43.503Z,12.75
2019-02-18T12:35:12.008Z,12.77
2019-02-18T12:37:40.500Z,12.86
2019-02-18T12:40:14.183Z,12.92
2019-02-18T12:42:42.866Z,12.97
2019-02-18T12:45:12.356Z,13.06
2019-02-18T12:47:40.849Z,13.08
2019-02-18T12:50:12.598Z,13.12
2019-02-18T12:52:41.095Z,13.13
2019-02-18T12:55:12.705Z,13.20
2019-02-18T12:57:41.318Z,13.24
2019-02-18T13:00:14.525Z,13.25
2019-02-18T13:02:44.938Z,13.28
2019-02-18T13:05:14.026Z,13.35
2019-02-18T13:07:42.571Z,13.41
2019-02-18T13:10:11.700Z,13.44
2019-02-18T13:12:40.500Z,13.41
2019-02-18T13:15:19.545Z,13.42
2019-02-18T13:17:47.976Z,13.47
2019-02-18T13:20:16.422Z,13.53
2019-02-18T13:22:45.023Z,13.56
2019-02-18T13:25:13.622Z,13.58
2019-02-18T13:27:42.112Z,13.59
2019-02-18T13:30:15.992Z,13.57
2019-02-18T13:32:44.432Z,13.54
2019-02-18T13:35:12.944Z,13.49
2019-02-18T13:37:41.364Z,13.49
2019-02-18T13:40:10.643Z,13.47
2019-02-18T13:42:39.130Z,13.45
2019-02-18T13:45:08.718Z,13.44
2019-02-18T13:47:37.219Z,13.41
2019-02-18T13:50:08.855Z,13.40
2019-02-18T13:52:45.810Z,13.48
2019-02-18T13:55:14.634Z,13.48
2019-02-18T13:57:43.613Z,13.50
2019-02-18T14:00:16.709Z,13.50
2019-02-18T14:02:45.199Z,13.49
2019-02-18T14:05:13.827Z,13.48
2019-02-18T14:07:42.251Z,13.46
2019-02-18T14:10:10.938Z,13.43
2019-02-18T14:12:39.638Z,13.42
2019-02-18T14:15:10.798Z,13.43
2019-02-18T14:17:39.290Z,13.41
2019-02-18T14:20:14.176Z,13.40
2019-02-18T14:22:43.160Z,13.37
2019-02-18T14:25:12.018Z,13.33
2019-02-18T14:27:40.537Z,13.22
2019-02-18T14:30:11.864Z,13.16
2019-02-18T14:32:40.390Z,13.10
2019-02-18T14:35:09.343Z,13.08
2019-02-18T14:37:37.865Z,13.02
2019-02-18T14:40:08.178Z,12.97
2019-02-18T14:42:36.630Z,12.90
2019-02-18T14:45:06.099Z,12.83
2019-02-18T14:47:34.552Z,12.74
2019-02-18T14:50:02.984Z,12.67
2019-02-18T14:52:31.506Z,12.64
2019-02-18T14:54:59.937Z,12.57
2019-02-18T14:57:28.456Z,12.51
2019-02-18T14:59:56.889Z,12.49
2019-02-18T15:02:25.415Z,12.40
2019-02-18T15:04:53.911Z,12.31
2019-02-18T15:07:22.437Z,12.23
2019-02-18T15:09:50.868Z,12.17
2019-02-18T15:12:19.861Z,12.13
2019-02-18T15:14:48.287Z,12.06
2019-02-18T15:17:16.738Z,11.97
2019-02-18T15:19:45.162Z,11.89
2019-02-18T15:22:13.613Z,11.81
2019-02-18T15:24:42.107Z,11.75
2019-02-18T15:27:10.935Z,11.68
2019-02-18T15:29:39.362Z,11.59
2019-02-18T15:32:08.254Z,11.48
2019-02-18T15:34:36.683Z,11.41
2019-02-18T15:37:05.137Z,11.30
2019-02-18T15:39:33.562Z,11.24
2019-02-18T15:42:02.147Z,11.15
2019-02-18T15:44:30.581Z,11.12
2019-02-18T15:46:59.037Z,11.13
2019-02-18T15:49:27.467Z,11.14
2019-02-18T15:51:55.991Z,11.09
2019-02-18T15:54:24.435Z,11.02
2019-02-18T15:56:52.845Z,10.91
2019-02-18T15:59:21.661Z,10.75
2019-02-18T16:01:50.088Z,10.57
2019-02-18T16:04:18.539Z,10.39
2019-02-18T16:06:46.962Z,10.20
2019-02-18T16:09:15.424Z,10.02
2019-02-18T16:11:43.847Z,9.86
2019-02-18T16:14:12.308Z,9.73
2019-02-18T16:16:40.809Z,9.61
2019-02-18T16:19:09.252Z,9.51
2019-02-18T16:21:37.679Z,9.38
2019-02-18T16:24:06.147Z,9.27
2019-02-18T16:26:34.538Z,9.15
2019-02-18T16:29:03.051Z,9.05
2019-02-18T16:31:31.760Z,8.94
2019-02-18T16:34:00.682Z,8.85
2019-02-18T16:36:29.114Z,8.78
2019-02-18T16:38:57.739Z,8.63
2019-02-18T16:41:26.165Z,8.42
2019-02-18T16:43:54.614Z,8.22
2019-02-18T16:46:23.411Z,8.09
2019-02-18T16:48:52.247Z,8.06
2019-02-18T16:51:20.678Z,8.20
2019-02-18T16:53:49.134Z,8.33
2019-02-18T16:56:17.563Z,8.41
2019-02-18T16:58:46.016Z,8.49
2019-02-18T17:01:14.508Z,8.37
2019-02-18T17:03:42.997Z,8.34
2019-02-18T17:06:11.477Z,8.26
2019-02-18T17:08:39.935Z,8.22
2019-02-18T17:11:08.488Z,8.11
2019-02-18T17:13:36.949Z,8.00
2019-02-18T17:16:05.447Z,8.05
2019-02-18T17:18:34.372Z,7.93
2019-02-18T17:21:02.798Z,7.85
2019-02-18T17:23:31.240Z,7.71
2019-02-18T17:25:59.676Z,7.60
2019-02-18T17:28:28.126Z,7.58
2019-02-18T17:30:56.546Z,7.45
2019-02-18T17:33:24.999Z,7.43
2019-02-18T17:35:53.420Z,7.37
2019-02-18T17:38:21.872Z,7.34
2019-02-18T17:40:50.290Z,7.34
2019-02-18T17:43:18.739Z,7.27
2019-02-18T17:45:47.162Z,7.17
2019-02-18T17:48:15.616Z,7.11
2019-02-18T17:50:44.524Z,6.96
2019-02-18T17:53:12.953Z,6.78
2019-02-18T17:55:41.401Z,6.62
2019-02-18T17:58:09.823Z,6.53
2019-02-18T18:00:39.922Z,6.40
2019-02-18T18:03:08.352Z,6.40
2019-02-18T18:05:36.812Z,6.33
2019-02-18T18:08:05.229Z,6.33
2019-02-18T18:10:33.683Z,6.33
2019-02-18T18:13:02.109Z,6.08
2019-02-18T18:15:30.555Z,5.72
2019-02-18T18:17:58.976Z,5.67
2019-02-18T18:20:27.428Z,5.67
2019-02-18T18:22:56.152Z,5.64
2019-02-18T18:25:24.603Z,5.73
2019-02-18T18:27:53.093Z,5.73
2019-02-18T18:30:21.540Z,5.77
2019-02-18T18:32:50.033Z,5.42
2019-02-18T18:35:18.564Z,5.42
2019-02-18T18:37:47.060Z,5.18
2019-02-18T18:40:21.579Z,5.14
2019-02-18T18:42:50.008Z,5.07
2019-02-18T18:45:18.896Z,5.20
2019-02-18T18:47:47.391Z,5.22
2019-02-18T18:50:21.712Z,5.20
2019-02-18T18:52:50.199Z,5.20
2019-02-18T18:55:18.720Z,5.10
2019-02-18T18:57:47.148Z,4.99
2019-02-18T19:00:24.440Z,4.99
2019-02-18T19:02:52.949Z,4.91
2019-02-18T19:05:21.849Z,4.77
2019-02-18T19:07:50.277Z,4.65
2019-02-18T19:10:18.836Z,4.54
2019-02-18T19:12:47.357Z,4.52
2019-02-18T19:15:17.125Z,4.52
2019-02-18T19:17:45.586Z,4.49
2019-02-18T19:20:14.291Z,4.21
2019-02-18T19:22:42.746Z,4.00
2019-02-18T19:25:12.211Z,3.82
2019-02-18T19:27:40.674Z,3.82
2019-02-18T19:30:30.323Z,3.84
2019-02-18T19:32:58.779Z,3.84
2019-02-18T19:35:27.267Z,3.86
2019-02-18T19:37:55.718Z,3.86
2019-02-18T19:40:24.152Z,3.96
2019-02-18T19:42:52.616Z,3.96
2019-02-18T19:45:24.989Z,3.96
2019-02-18T19:47:53.521Z,3.99
2019-02-18T19:50:21.943Z,3.99
2019-02-18T19:52:50.466Z,3.92
2019-02-18T19:55:18.890Z,3.92
2019-02-18T19:57:47.360Z,3.62
2019-02-18T20:00:18.064Z,3.30
2019-02-18T20:02:46.587Z,3.30
2019-02-18T20:05:15.081Z,3.11
2019-02-18T20:07:44.255Z,3.11
2019-02-18T20:10:13.501Z,3.02
2019-02-18T20:12:41.943Z,2.90
2019-02-18T20:15:15.377Z,2.78
2019-02-18T20:17:43.832Z,2.80
2019-02-18T20:20:14.954Z,2.85
2019-02-18T20:22:43.403Z,2.91
2019-02-18T20:25:12.389Z,2.98
2019-02-18T20:27:40.849Z,3.10
2019-02-18T20:30:14.181Z,3.10
2019-02-18T20:32:42.698Z,3.07
2019-02-18T20:35:11.591Z,3.00
2019-02-18T20:37:40.162Z,2.95
2019-02-18T20:40:09.975Z,2.89
2019-02-18T20:42:38.748Z,2.69
2019-02-18T20:45:11.774Z,2.55
2019-02-18T20:47:40.304Z,2.49
2019-02-18T20:50:11.665Z,2.47
2019-02-18T20:52:40.156Z,2.44
2019-02-18T20:55:15.588Z,2.38
2019-02-18T20:57:44.083Z,2.34
2019-02-18T21:00:20.162Z,2.32
2019-02-18T21:02:48.727Z,2.39
2019-02-18T21:05:17.228Z,2.40
2019-02-18T21:07:45.724Z,2.45
2019-02-18T21:10:19.514Z,2.37
2019-02-18T21:12:48.195Z,2.22
2019-02-18T21:15:16.762Z,2.10
2019-02-18T21:17:45.183Z,2.03
2019-02-18T21:20:14.574Z,2.00
2019-02-18T21:22:43.132Z,2.01
2019-02-18T21:25:12.040Z,1.83
2019-02-18T21:27:40.457Z,1.77
2019-02-18T21:30:16.174Z,1.78
2019-02-18T21:32:44.595Z,1.80
2019-02-18T21:35:13.112Z,1.81
2019-02-18T21:37:42.051Z,1.76
2019-02-18T21:40:13.666Z,1.82
2019-02-18T21:42:42.088Z,1.91
2019-02-18T21:45:12.783Z,1.93
2019-02-18T21:47:41.211Z,1.97
2019-02-18T21:50:10.604Z,1.93
2019-02-18T21:52:39.470Z,1.82
2019-02-18T21:55:09.758Z,1.78
2019-02-18T21:57:38.185Z,1.69
2019-02-18T22:00:11.689Z,1.60
2019-02-18T22:02:40.114Z,1.63
2019-02-18T22:05:08.748Z,1.54
2019-02-18T22:07:37.346Z,1.48
2019-02-18T22:10:08.144Z,1.45
2019-02-18T22:12:36.568Z,1.45
2019-02-18T22:15:06.559Z,1.50
2019-02-18T22:17:34.986Z,1.33
2019-02-18T22:20:03.435Z,1.19
2019-02-18T22:22:32.237Z,1.10
2019-02-18T22:25:00.688Z,1.10
2019-02-18T22:27:29.117Z,1.10
2019-02-18T22:29:57.572Z,1.25
2019-02-18T22:32:26.000Z,1.19
2019-02-18T22:34:54.451Z,1.14
2019-02-18T22:37:22.873Z,1.08
2019-02-18T22:39:51.713Z,1.03
2019-02-18T22:42:20.138Z,0.93
2019-02-18T22:44:48.588Z,0.92
2019-02-18T22:47:17.012Z,0.91
2019-02-18T22:49:45.461Z,0.97
2019-02-18T22:52:13.890Z,1.03
2019-02-18T22:54:42.358Z,1.04
2019-02-18T22:57:11.152Z,1.03
2019-02-18T22:59:39.575Z,0.97
2019-02-18T23:02:09.066Z,0.86
2019-02-18T23:04:37.487Z,0.79
2019-02-18T23:07:05.939Z,0.77
2019-02-18T23:09:34.369Z,0.81
2019-02-18T23:12:02.816Z,0.66
2019-02-18T23:14:31.490Z,0.50
2019-02-18T23:17:00.008Z,0.62
2019-02-18T23:19:28.425Z,0.71
2019-02-18T23:21:56.871Z,0.79
2019-02-18T23:24:25.298Z,0.83
2019-02-18T23:26:53.755Z,0.72
2019-02-18T23:29:22.183Z,0.80
2019-02-18T23:31:50.637Z,0.96
2019-02-18T23:34:19.085Z,0.96
2019-02-18T23:36:47.514Z,0.99
2019-02-18T23:39:15.941Z,0.99
2019-02-18T23:41:44.399Z,0.96
2019-02-18T23:44:12.818Z,0.82
2019-02-18T23:46:41.269Z,0.71
2019-02-18T23:49:09.693Z,0.72
2019-02-18T23:51:38.143Z,0.80
2019-02-18T23:54:06.569Z,0.92
2019-02-18T23:56:35.030Z,0.93
2019-02-18T23:59:03.452Z,0.93
